Aérodrome :
LOGIN :

S'inscrire | Disclaimer

   EN    FR    IT 

 










Légende :    VFR   VFR Marginal   IFR   IFR Intensif   IFR Très Intensif
Visi : 
Plafond : 
>= 8 km
>= 3000ft
5 à 8 km
1000 à 3000 ft
1500m à 5 km
500 à 1000 ft
800 à 1500m
200 à 500 ft
< 800m
< 200 ft
Symboles :   Orages  Brouillard  Fortes neiges  Fortes précipitations  Vent > 20 kt
SIGMETs :   Divers  Orages  Givrage  Turbulence  Onde Orograph.  Cendres Volcan.







- Altitude de l'aérodrome : 2096 ft
- Code IATA : AUR
- Voir les cartes d'approche


LFLW - Aurillac

DERNIER METAR :
  • 120430Z AUTO 11003KT CAVOK M03/M04 Q1018

METARs EXPIRÉS :
  • 120400Z AUTO 10003KT CAVOK M03/M04 Q1019
  • 120330Z AUTO 10003KT CAVOK M03/M04 Q1019
  • 120300Z AUTO 08004KT CAVOK M03/M04 Q1019
  • 120230Z AUTO VRB03KT CAVOK M02/M03 Q1020
  • 120200Z AUTO 19002KT CAVOK M03/M04 Q1019

Prévision TAF périmée.
Pas de NOTAMs connus pour ce terrain.
1 SIGMET publié pour la FIR Bordeaux (LFBB) :
 
Turbulence forte
LFBB SIGMET 1 VALID 120400/120800 LFPW
LFBB BORDEAUX FIR/UIR SEV TURB FCST NW OF LINE N4545 W00145 - N4630 W00045 FL160/260 MOV SE 30KT NC=



MET'MAP, la Météo Aéronautique d'un coup d'oeil ! - Copyright ORBIFLY Décembre 2007 - Disclaimer

ORBIFLY MET'MAP TEAM :

Programmation & Développement : Alexandra Zaïnal
Conception & Développement : Baudouin d'Aumeries
Co-Programmation & Développement : Marc-Olivier Méhu
Soutien technique & logistique : Manuel Goepfert

Contact : metmap@orbifly.com




SOURCES & CREDITS :

   NOAA